Seale, Alabama
Current Conditions -  °F | °C
As of 12:58 PM on Saturday 25 Oct 2014 (Local Time) from KLSF Reporting Station
Clear Clear  
Wind Chill: 74°   Ceiling: Unl
Heat Index: 74°   Visibility: 10mi
Dew Point: 42°   Wind: 9mph
Humidity: 32%   Direction: 10°N
Pressure: 30.04"   Gusts: NA
Location:  32.3°N, 85.17°W
Report Text: KLSF 251758Z AUTO 01008KT 10SM CLR 24/06 A3004 RMK AO2 SLP175 60000 T02360058 10236 20043 58015
Loading
Personal Weather Stations






























Interactive Weather Map
Tropical Storm Tracking
New forecast layout! Learn more

10-Day Weather Forecast

Advertisements
Track Severe Weather on mobile